Dublin Airport


Codes: EIDW/DUB
Name: Dublin Airport
City: Dublin
Country: Ireland
Elevation: 242 ft.
Website:
Wikipedia:

Photos at Dublin Airport


   Photos courtesy of SpottingLog. You can add your own sightings and photos by signing up for a free trial today.



N187DN, 13-Apr-2024
© Thomas Baynes

N568DZ, 13-Apr-2024
© Thomas Baynes

N872AN, 02-Apr-2024
© Tony Smith

TC-SPU, 02-Apr-2024
© Tony Smith

EI-DEP, 26-Mar-2024
© Tony Smith

N875BD, 26-Mar-2024
© Tony Smith

N2151J, 26-Mar-2024
© Tony Smith

N13113, 26-Mar-2024
© Tony Smith

C-FZWS, 26-Mar-2024
© Tony Smith

9H-QBO, 26-Mar-2024
© Tony Smith

9H-QDZ, 26-Mar-2024
© Tony Smith

EI-SCB, 26-Mar-2024
© Tony Smith


Weather at Dublin Airport


Time (UTC)DescriptionTempratureWindCloud coverageVisibilityPressureHumidity
15-Apr-2024 18:00Scattered Clouds9°C25 mph, W33%10000m1010hPa67%
15-Apr-2024 21:00Broken Clouds9°C20 mph, NW71%10000m1012hPa70%
16-Apr-2024 00:00Broken Clouds6°C16 mph, NW80%10000m1016hPa81%
16-Apr-2024 03:00Broken Clouds5°C13 mph, W73%10000m1017hPa92%
16-Apr-2024 06:00Scattered Clouds4°C11 mph, W47%10000m1018hPa96%
16-Apr-2024 09:00Broken Clouds8°C11 mph, NW74%10000m1019hPa72%
16-Apr-2024 12:00Light Rain9°C9 mph, NW88%10000m1020hPa74%
16-Apr-2024 15:00Light Rain10°C11 mph, NW97%10000m1020hPa71%
16-Apr-2024 18:00Light Rain8°C11 mph, NW98%10000m1020hPa84%
16-Apr-2024 21:00Light Rain4°C11 mph, NW48%10000m1022hPa94%
17-Apr-2024 00:00Scattered Clouds3°C9 mph, NW34%10000m1022hPa92%
17-Apr-2024 03:00Broken Clouds2°C9 mph, W67%10000m1022hPa96%
17-Apr-2024 06:00Broken Clouds3°C9 mph, W80%10000m1022hPa95%
17-Apr-2024 09:00Overcast Clouds7°C11 mph, NW100%10000m1021hPa78%
17-Apr-2024 12:00Light Rain6°C9 mph, W100%10000m1020hPa91%
17-Apr-2024 15:00Light Rain6°C7 mph, SW100%10000m1019hPa93%
17-Apr-2024 18:00Light Rain9°C4 mph, W99%10000m1019hPa91%
17-Apr-2024 21:00Light Rain7°C4 mph, NW94%10000m1020hPa97%
18-Apr-2024 00:00Light Rain6°C7 mph, NW91%10000m1021hPa96%
18-Apr-2024 03:00Light Rain5°C7 mph, W100%10000m1022hPa96%
18-Apr-2024 06:00Overcast Clouds5°C7 mph, W100%10000m1023hPa95%
18-Apr-2024 09:00Overcast Clouds8°C9 mph, W100%10000m1024hPa80%
18-Apr-2024 12:00Light Rain12°C9 mph, NW93%10000m1024hPa59%
18-Apr-2024 15:00Overcast Clouds11°C9 mph, W100%10000m1024hPa63%
18-Apr-2024 18:00Overcast Clouds11°C11 mph, W99%10000m1024hPa76%
18-Apr-2024 21:00Overcast Clouds10°C11 mph, W91%10000m1025hPa82%
19-Apr-2024 00:00Broken Clouds7°C11 mph, W83%10000m1024hPa96%
19-Apr-2024 03:00Broken Clouds8°C11 mph, W79%10000m1024hPa90%
19-Apr-2024 06:00Overcast Clouds7°C11 mph, W86%10000m1024hPa94%
19-Apr-2024 09:00Overcast Clouds10°C11 mph, W100%10000m1025hPa89%
19-Apr-2024 12:00Overcast Clouds12°C9 mph, NW100%10000m1025hPa80%
19-Apr-2024 15:00Overcast Clouds12°C7 mph, NW100%10000m1025hPa80%
19-Apr-2024 18:00Light Rain12°C4 mph, NW100%10000m1026hPa85%
19-Apr-2024 21:00Overcast Clouds10°C4 mph, W97%10000m1026hPa90%
20-Apr-2024 00:00Overcast Clouds10°C7 mph, W98%10000m1026hPa94%
20-Apr-2024 03:00Broken Clouds8°C7 mph, W65%10000m1027hPa98%
20-Apr-2024 06:00Broken Clouds8°C7 mph, W82%10000m1027hPa97%
20-Apr-2024 09:00Overcast Clouds12°C9 mph, W100%10000m1027hPa81%
20-Apr-2024 12:00Overcast Clouds15°C11 mph, W100%10000m1027hPa70%
20-Apr-2024 15:00Overcast Clouds15°C9 mph, W100%10000m1027hPa68%